createdAt,value
2023-02-23T00:00:27.956Z,29.6
2023-02-23T00:03:29.977Z,32.2
2023-02-23T00:06:31.986Z,29.8
2023-02-23T00:09:33.885Z,29.4
2023-02-23T00:12:35.836Z,42.6
2023-02-23T00:15:37.817Z,31.5
2023-02-23T00:18:39.744Z,29.9
2023-02-23T00:21:41.743Z,30.3
2023-02-23T00:24:43.729Z,29.2
2023-02-23T00:27:45.686Z,28.8
2023-02-23T00:30:47.658Z,35.2
2023-02-23T00:33:49.594Z,28
2023-02-23T00:36:51.730Z,31.4
2023-02-23T00:39:53.519Z,30.5
2023-02-23T00:42:55.508Z,27.8
2023-02-23T00:45:57.737Z,30.6
2023-02-23T00:48:59.436Z,33.4
2023-02-23T00:52:01.375Z,33.1
2023-02-23T00:55:03.358Z,32.9
2023-02-23T00:58:05.354Z,40.3
2023-02-23T01:01:07.397Z,33.1
2023-02-23T01:04:09.279Z,31.7
2023-02-23T01:07:11.235Z,32.9
2023-02-23T01:10:13.147Z,35.7
2023-02-23T01:13:15.143Z,29.3
2023-02-23T01:16:17.085Z,31.3
2023-02-23T01:19:19.049Z,30.7
2023-02-23T01:22:20.993Z,37.4
2023-02-23T01:25:22.967Z,32.8
2023-02-23T01:28:24.935Z,27.4
2023-02-23T01:31:27.026Z,37.4
2023-02-23T01:34:28.892Z,34.7
2023-02-23T01:37:30.838Z,32.8
2023-02-23T01:40:32.817Z,38.3
2023-02-23T01:43:34.778Z,35
2023-02-23T01:46:36.763Z,43.4
2023-02-23T01:49:38.728Z,41.7
2023-02-23T01:52:40.655Z,54.5
2023-02-23T01:55:42.639Z,37.9
2023-02-23T01:58:44.598Z,43.6
2023-02-23T02:01:46.622Z,42
2023-02-23T02:04:48.544Z,46.5
2023-02-23T02:07:50.513Z,41.8
2023-02-23T02:10:52.504Z,42.9
2023-02-23T02:13:54.446Z,37.7
2023-02-23T02:16:56.558Z,41.1
2023-02-23T02:19:58.327Z,44.9
2023-02-23T02:23:00.323Z,47.8
2023-02-23T02:26:02.287Z,53.2
2023-02-23T02:29:04.215Z,51.4
2023-02-23T02:32:06.222Z,50.7
2023-02-23T02:35:08.168Z,51.9
2023-02-23T02:38:10.107Z,56.4
2023-02-23T02:41:12.107Z,57.3
2023-02-23T02:44:14.058Z,51
2023-02-23T02:47:16.019Z,62.4
2023-02-23T02:50:17.964Z,60.6
2023-02-23T02:53:19.940Z,58.8
2023-02-23T02:56:21.874Z,63.4
2023-02-23T02:59:23.857Z,68.1
2023-02-23T03:02:25.818Z,56.5
2023-02-23T03:05:27.876Z,56.1
2023-02-23T03:08:29.760Z,47.6
2023-02-23T03:11:31.739Z,64.6
2023-02-23T03:14:33.680Z,67.4
2023-02-23T03:17:38.138Z,56.4
2023-02-23T03:20:37.606Z,51.4
2023-02-23T03:23:39.607Z,58.7
2023-02-23T03:26:41.566Z,50.9
2023-02-23T03:29:43.546Z,65.1
2023-02-23T03:32:45.446Z,54.8
2023-02-23T03:35:47.453Z,71
2023-02-23T03:38:49.410Z,61.7
2023-02-23T03:41:51.510Z,53.6
2023-02-23T03:44:53.331Z,54.5
2023-02-23T03:47:55.286Z,65.1
2023-02-23T03:50:57.373Z,57.3
2023-02-23T03:53:59.233Z,53.7
2023-02-23T03:57:01.224Z,58.5
2023-02-23T04:00:03.167Z,57.1
2023-02-23T04:03:05.138Z,59.4
2023-02-23T04:06:07.086Z,67.2
2023-02-23T04:09:09.049Z,66.4
2023-02-23T04:12:11.059Z,63.3
2023-02-23T04:15:13.011Z,54.8
2023-02-23T04:18:14.969Z,63.6
2023-02-23T04:21:17.317Z,57.2
2023-02-23T04:24:18.857Z,55.6
2023-02-23T04:27:20.871Z,63.1
2023-02-23T04:30:22.816Z,57.6
2023-02-23T04:33:24.758Z,64
2023-02-23T04:36:26.724Z,67.4
2023-02-23T04:39:28.684Z,76.8
2023-02-23T04:42:30.665Z,80.7
2023-02-23T04:45:32.616Z,75.5
2023-02-23T04:48:34.576Z,68.6
2023-02-23T04:51:36.552Z,60.4
2023-02-23T04:54:38.507Z,59.5
2023-02-23T04:57:40.502Z,85.8
2023-02-23T05:00:42.502Z,84.3
2023-02-23T05:03:44.402Z,97.4
2023-02-23T05:06:46.365Z,68.9
2023-02-23T05:09:48.333Z,68.7
2023-02-23T05:12:50.279Z,64.5
2023-02-23T05:15:52.292Z,68.3
2023-02-23T05:18:54.243Z,66.8
2023-02-23T05:21:56.192Z,72.5
2023-02-23T05:24:58.135Z,72.2
2023-02-23T05:28:00.100Z,65.6
2023-02-23T05:31:02.203Z,64.7
2023-02-23T05:34:04.003Z,67.8
2023-02-23T05:37:06.033Z,68.7
2023-02-23T05:40:08.146Z,69.2
2023-02-23T05:43:09.915Z,72.3
2023-02-23T05:46:11.931Z,74.8
2023-02-23T05:49:13.813Z,75
2023-02-23T05:52:15.931Z,71.7
2023-02-23T05:55:17.805Z,66
2023-02-23T05:58:19.743Z,76.6
2023-02-23T06:01:21.708Z,104.8
2023-02-23T06:04:23.675Z,73
2023-02-23T06:07:25.629Z,87.2
2023-02-23T06:10:27.848Z,72
2023-02-23T06:13:29.559Z,72.6
2023-02-23T06:16:31.573Z,71.1
2023-02-23T06:19:33.491Z,90.4
2023-02-23T06:22:35.447Z,74.7
2023-02-23T06:25:37.383Z,70
2023-02-23T06:28:39.334Z,101.8
2023-02-23T06:31:41.410Z,90.8
2023-02-23T06:34:43.276Z,114
2023-02-23T06:37:45.271Z,95.5
2023-02-23T06:40:47.209Z,88.6
2023-02-23T06:43:49.213Z,76.6
2023-02-23T06:46:51.177Z,81.9
2023-02-23T06:49:53.126Z,76.2
2023-02-23T06:52:55.070Z,70.3
2023-02-23T06:55:57.034Z,67.7
2023-02-23T06:58:59.004Z,86.4
2023-02-23T07:02:00.987Z,74
2023-02-23T07:05:03.181Z,94.4
2023-02-23T07:08:04.966Z,94.1
2023-02-23T07:11:06.915Z,94.7
2023-02-23T07:14:10.759Z,84.8
2023-02-23T07:17:12.549Z,75.6
2023-02-23T07:20:12.801Z,70.7
2023-02-23T07:23:14.765Z,79.8
2023-02-23T07:26:16.764Z,103.7
2023-02-23T07:29:18.702Z,83.9
2023-02-23T07:32:20.767Z,95.2
2023-02-23T07:35:22.611Z,78.6
2023-02-23T07:38:24.571Z,95.5
2023-02-23T07:41:26.529Z,75.4
2023-02-23T07:44:28.480Z,75.9
2023-02-23T07:47:30.471Z,83.1
2023-02-23T07:50:32.402Z,90.2
2023-02-23T07:53:34.413Z,69.1
2023-02-23T07:56:36.387Z,79.9
2023-02-23T07:59:38.321Z,76.5
2023-02-23T08:02:40.287Z,77.3
2023-02-23T08:05:42.267Z,73.5
2023-02-23T08:08:44.262Z,76.5
2023-02-23T08:11:46.238Z,78.7
2023-02-23T08:14:48.191Z,71.5
2023-02-23T08:17:50.122Z,72.7
2023-02-23T08:20:52.097Z,67.8
2023-02-23T08:23:54.083Z,66.2
2023-02-23T08:26:56.025Z,67.4
2023-02-23T08:29:58.005Z,68.9
2023-02-23T08:32:59.951Z,68
2023-02-23T08:36:01.916Z,57.7
2023-02-23T08:39:03.914Z,66.3
2023-02-23T08:42:05.864Z,64.4
2023-02-23T08:45:08.698Z,76.5
2023-02-23T08:48:09.805Z,70.2
2023-02-23T08:51:11.789Z,62.2
2023-02-23T08:54:13.760Z,78.4
2023-02-23T08:57:15.690Z,68.9
2023-02-23T09:00:17.678Z,66.6
2023-02-23T09:03:19.627Z,55.9
2023-02-23T09:06:21.590Z,65.1
2023-02-23T09:09:23.529Z,65.3
2023-02-23T09:12:25.499Z,61.6
2023-02-23T09:15:27.449Z,59.5
2023-02-23T09:18:29.466Z,64.7
2023-02-23T09:21:31.389Z,62.8
2023-02-23T09:24:33.375Z,57.8
2023-02-23T09:27:35.386Z,65.4
2023-02-23T09:30:37.372Z,63.3
2023-02-23T09:33:39.324Z,60.8
2023-02-23T09:36:41.279Z,74.6
2023-02-23T09:39:43.347Z,64.1
2023-02-23T09:42:45.231Z,57.5
2023-02-23T09:45:47.232Z,69.6
2023-02-23T09:48:49.110Z,60.3
2023-02-23T09:51:51.075Z,59.7
2023-02-23T09:54:53.033Z,62.4
2023-02-23T09:57:55.008Z,47.9
2023-02-23T10:00:56.959Z,60.1
2023-02-23T10:03:59.158Z,51.4
2023-02-23T10:07:00.909Z,49.4
2023-02-23T10:10:02.902Z,54.2
2023-02-23T10:13:04.858Z,59.1
2023-02-23T10:16:06.881Z,50.5
2023-02-23T10:19:08.768Z,43.7
2023-02-23T10:22:10.738Z,51.3
2023-02-23T10:25:12.742Z,45.3
2023-02-23T10:28:14.711Z,43.1
2023-02-23T10:31:16.951Z,40
2023-02-23T10:34:18.615Z,37
2023-02-23T10:37:20.619Z,37.5
2023-02-23T10:40:22.545Z,33.3
2023-02-23T10:43:24.631Z,37.6
2023-02-23T10:46:26.515Z,43.9
2023-02-23T10:49:28.966Z,39.9
2023-02-23T10:52:32.323Z,31.8
2023-02-23T10:55:32.362Z,32.3
2023-02-23T10:58:34.343Z,35.4
2023-02-23T11:01:36.507Z,31.4
2023-02-23T11:04:38.341Z,33.8
2023-02-23T11:07:40.291Z,34.5
2023-02-23T11:10:42.265Z,30.9
2023-02-23T11:13:44.279Z,29.3
2023-02-23T11:16:46.316Z,30.4
2023-02-23T11:19:48.151Z,27.4
2023-02-23T11:22:50.120Z,27.2
2023-02-23T11:25:52.116Z,25.6
2023-02-23T11:28:54.074Z,25.2
2023-02-23T11:31:56.157Z,28.8
2023-02-23T11:34:58.002Z,34.9
2023-02-23T11:37:59.980Z,28.9
2023-02-23T11:41:01.982Z,27.9
2023-02-23T11:44:05.997Z,22.8
2023-02-23T11:47:05.952Z,27.7
2023-02-23T11:50:07.830Z,22.4
2023-02-23T11:53:09.788Z,23.8
2023-02-23T11:56:11.801Z,20.9
2023-02-23T11:59:13.805Z,21.4
2023-02-23T12:02:15.731Z,21.9
2023-02-23T12:05:17.805Z,25.8
2023-02-23T12:08:19.691Z,20.5
2023-02-23T12:11:21.664Z,17.9
2023-02-23T12:14:23.596Z,21.3
2023-02-23T12:17:25.563Z,17.1
2023-02-23T12:20:27.525Z,17
2023-02-23T12:23:29.495Z,16.4
2023-02-23T12:26:31.452Z,18.3
2023-02-23T12:29:33.405Z,13.6
2023-02-23T12:32:35.417Z,15.6
2023-02-23T12:35:37.375Z,16.5
2023-02-23T12:38:39.332Z,15.5
2023-02-23T12:41:41.270Z,19.3
2023-02-23T12:44:43.306Z,16.8
2023-02-23T12:47:45.227Z,17.8
2023-02-23T12:50:47.184Z,18.9
2023-02-23T12:53:49.132Z,22.6
2023-02-23T12:56:51.152Z,19.8
2023-02-23T12:59:53.080Z,15
2023-02-23T13:02:55.055Z,14.8
2023-02-23T13:05:56.985Z,17.9
2023-02-23T13:08:58.947Z,16
2023-02-23T13:12:00.922Z,13
2023-02-23T13:15:02.848Z,12
2023-02-23T13:18:04.806Z,11.3
2023-02-23T13:21:06.792Z,11.3
2023-02-23T13:24:08.715Z,9.2
2023-02-23T13:27:10.684Z,9
2023-02-23T13:30:12.641Z,9.5
2023-02-23T13:33:14.663Z,9.6
2023-02-23T13:36:16.618Z,9.4
2023-02-23T13:42:20.513Z,9
2023-02-23T13:45:22.496Z,8.4
2023-02-23T13:48:24.444Z,7.8
2023-02-23T13:51:26.425Z,5.8
2023-02-23T13:54:28.377Z,8.6
2023-02-23T13:57:30.344Z,10.7
2023-02-23T14:00:32.344Z,9.7
2023-02-23T14:03:34.400Z,6.3
2023-02-23T14:06:36.240Z,5.8
2023-02-23T14:09:38.250Z,9.1
2023-02-23T14:12:40.190Z,9
2023-02-23T14:15:42.149Z,7.8
2023-02-23T14:18:44.115Z,8.2
2023-02-23T14:21:46.117Z,9.7
2023-02-23T14:24:48.099Z,9.4
2023-02-23T14:27:50.072Z,9.4
2023-02-23T14:30:52.087Z,6.7
2023-02-23T14:33:53.957Z,11
2023-02-23T14:36:55.904Z,8.4
2023-02-23T14:39:57.882Z,7.6
2023-02-23T14:42:59.880Z,12.3
2023-02-23T14:46:01.832Z,10.6
2023-02-23T14:49:03.767Z,14.5
2023-02-23T14:52:05.756Z,13
2023-02-23T14:55:07.688Z,11.2
2023-02-23T14:58:09.661Z,14.6
2023-02-23T15:01:11.625Z,14.5
2023-02-23T15:04:13.599Z,13.4
2023-02-23T15:07:16.718Z,18.4
2023-02-23T15:10:17.527Z,19
2023-02-23T15:13:19.490Z,21.5
2023-02-23T15:16:21.541Z,17.7
2023-02-23T15:19:23.453Z,13
2023-02-23T15:22:25.433Z,16.9
2023-02-23T15:25:27.423Z,13.5
2023-02-23T15:28:29.436Z,16.9
2023-02-23T15:31:31.440Z,15.8
2023-02-23T15:34:33.275Z,12.1
2023-02-23T15:37:35.286Z,15.2
2023-02-23T15:40:37.235Z,13.9
2023-02-23T15:43:39.155Z,14.4
2023-02-23T15:46:41.141Z,18
2023-02-23T15:49:43.170Z,15.1
2023-02-23T15:52:45.139Z,15.7
2023-02-23T15:55:47.116Z,18.4
2023-02-23T15:58:56.200Z,20
2023-02-23T16:01:50.988Z,16.4
2023-02-23T16:04:52.933Z,14.2
2023-02-23T16:07:54.917Z,13.4
2023-02-23T16:10:56.877Z,13.6
2023-02-23T16:13:58.850Z,12.2
2023-02-23T16:17:10.765Z,11.6
2023-02-23T16:20:02.840Z,12.5
2023-02-23T16:23:04.737Z,11.5
2023-02-23T16:26:06.781Z,10.5
2023-02-23T16:29:08.682Z,12.9
2023-02-23T16:32:10.843Z,13.4
2023-02-23T16:35:12.605Z,9.4
2023-02-23T16:38:14.550Z,12.6
2023-02-23T16:41:16.557Z,12.3
2023-02-23T16:44:18.496Z,10.5
2023-02-23T16:47:20.488Z,13.8
2023-02-23T16:50:22.555Z,12.1
2023-02-23T16:53:24.402Z,14
2023-02-23T16:56:26.339Z,10.8
2023-02-23T16:59:28.292Z,13.8
2023-02-23T17:02:30.335Z,13
2023-02-23T17:05:32.221Z,9.7
2023-02-23T17:08:34.176Z,10.8
2023-02-23T17:11:36.131Z,10.4
2023-02-23T17:14:38.133Z,9.8
2023-02-23T17:17:40.077Z,10.2
2023-02-23T17:20:42.022Z,10.5
2023-02-23T17:23:44.048Z,15.3
2023-02-23T17:26:45.991Z,17.6
2023-02-23T17:29:47.957Z,13.4
2023-02-23T17:32:50.121Z,13
2023-02-23T17:35:51.888Z,14.2
2023-02-23T17:38:53.836Z,13.8
2023-02-23T17:41:55.964Z,14.4
2023-02-23T17:44:57.796Z,14.9
2023-02-23T17:47:59.988Z,16.2
2023-02-23T17:51:01.683Z,14.3
2023-02-23T17:54:03.621Z,18.5
2023-02-23T17:57:05.673Z,14
2023-02-23T18:00:07.599Z,16.1
2023-02-23T18:03:09.616Z,17.7
2023-02-23T18:06:11.552Z,14.8
2023-02-23T18:09:13.516Z,18
2023-02-23T18:12:15.482Z,16.2
2023-02-23T18:15:17.411Z,20
2023-02-23T18:18:19.403Z,20.6
2023-02-23T18:21:21.365Z,22.4
2023-02-23T18:24:23.340Z,23.6
2023-02-23T18:27:25.282Z,22.8
2023-02-23T18:30:27.336Z,28.4
2023-02-23T18:33:29.204Z,28.7
2023-02-23T18:36:31.163Z,28.6
2023-02-23T18:39:33.107Z,27.4
2023-02-23T18:42:35.097Z,24.8
2023-02-23T18:45:37.045Z,25.1
2023-02-23T18:48:39.037Z,22.2
2023-02-23T18:51:42.438Z,19.3
2023-02-23T18:54:42.989Z,23
2023-02-23T18:57:44.949Z,23.1
2023-02-23T19:00:46.988Z,26.6
2023-02-23T19:03:48.866Z,23
2023-02-23T19:06:50.821Z,24.4
2023-02-23T19:09:52.775Z,29.2
2023-02-23T19:12:54.715Z,23.5
2023-02-23T19:15:56.705Z,22.3
2023-02-23T19:18:58.646Z,25
2023-02-23T19:22:00.613Z,22.9
2023-02-23T19:25:02.577Z,21.5
2023-02-23T19:28:04.499Z,23.4
2023-02-23T19:31:06.486Z,22.7
2023-02-23T19:34:08.421Z,21.6
2023-02-23T19:37:10.371Z,21.3
2023-02-23T19:40:12.353Z,20.9
2023-02-23T19:43:14.303Z,25.6
2023-02-23T19:46:16.276Z,19.3
2023-02-23T19:49:18.260Z,19.3
2023-02-23T19:52:20.218Z,16.5
2023-02-23T19:55:22.156Z,19.2
2023-02-23T19:58:24.105Z,21.4
2023-02-23T20:01:26.067Z,16.1
2023-02-23T20:04:28.023Z,16.2
2023-02-23T20:07:30.046Z,22.2
2023-02-23T20:10:31.971Z,23.4
2023-02-23T20:13:33.969Z,22.3
2023-02-23T20:16:35.950Z,23.2
2023-02-23T20:19:37.861Z,23
2023-02-23T20:22:39.801Z,25.8
2023-02-23T20:25:41.770Z,20.9
2023-02-23T20:28:43.727Z,23.1
2023-02-23T20:31:45.752Z,22
2023-02-23T20:34:47.691Z,19.1
2023-02-23T20:37:49.642Z,21.8
2023-02-23T20:40:51.610Z,17
2023-02-23T20:43:53.561Z,16.3
2023-02-23T20:46:55.523Z,22
2023-02-23T20:49:57.487Z,18.6
2023-02-23T20:52:59.460Z,18.9
2023-02-23T20:56:01.400Z,21
2023-02-23T20:59:03.351Z,15.7
2023-02-23T21:02:05.329Z,19.3
2023-02-23T21:05:07.283Z,17.1
2023-02-23T21:08:09.256Z,17
2023-02-23T21:11:11.197Z,17.3
2023-02-23T21:14:13.180Z,18
2023-02-23T21:17:15.164Z,22.1
2023-02-23T21:20:19.231Z,21
2023-02-23T21:23:19.057Z,19.8
2023-02-23T21:26:21.007Z,18.6
2023-02-23T21:29:23.021Z,17.7
2023-02-23T21:32:25.017Z,24.6
2023-02-23T21:35:26.955Z,26.6
2023-02-23T21:38:28.882Z,29.1
2023-02-23T21:41:30.834Z,23.4
2023-02-23T21:44:32.795Z,30.7
2023-02-23T21:47:34.789Z,29.6
2023-02-23T21:50:36.748Z,32.4
2023-02-23T21:53:38.740Z,32.8
2023-02-23T21:56:40.671Z,29.3
2023-02-23T21:59:42.639Z,29.6
2023-02-23T22:02:44.625Z,29.3
2023-02-23T22:05:46.526Z,26.3
2023-02-23T22:08:48.520Z,29.6
2023-02-23T22:11:50.504Z,28.9
2023-02-23T22:14:52.454Z,30.9
2023-02-23T22:17:54.414Z,30
2023-02-23T22:20:56.393Z,33
2023-02-23T22:23:58.313Z,35.4
2023-02-23T22:27:00.260Z,35.7
2023-02-23T22:30:02.237Z,35.6
2023-02-23T22:33:04.303Z,31.4
2023-02-23T22:36:06.144Z,34.1
2023-02-23T22:39:08.097Z,32.8
2023-02-23T22:42:10.058Z,28.8
2023-02-23T22:45:12.100Z,30.3
2023-02-23T22:48:13.974Z,30.8
2023-02-23T22:51:15.962Z,28.8
2023-02-23T22:54:17.910Z,30.4
2023-02-23T22:57:19.913Z,27.2
2023-02-23T23:00:21.844Z,27
2023-02-23T23:03:23.926Z,28.9
2023-02-23T23:06:25.780Z,31.3
2023-02-23T23:09:27.739Z,28.5
2023-02-23T23:12:29.740Z,29.6
2023-02-23T23:15:31.693Z,24.6
2023-02-23T23:18:33.656Z,27.9
2023-02-23T23:21:35.633Z,28.7
2023-02-23T23:24:37.548Z,30
2023-02-23T23:27:39.500Z,26.2
2023-02-23T23:30:41.452Z,27.2
2023-02-23T23:33:43.413Z,29.3
2023-02-23T23:36:45.372Z,24.5
2023-02-23T23:39:47.342Z,24.3
2023-02-23T23:42:49.306Z,26
2023-02-23T23:45:51.325Z,29.7
2023-02-23T23:48:53.235Z,25.4
2023-02-23T23:51:55.225Z,28.1
2023-02-23T23:54:57.164Z,32.3
2023-02-23T23:57:59.105Z,27.1
